Favola — IBFH — position and weather

sailwx.info

Track history (hours):
 
Tides and Currents Weather Stations Pressure Air Temp Water Temp Dewpoint Dewpoint Depression Visibility Wind Speed Wind Dir Waves Ship Positions

Favola

Last reported at 2018-Jan-06 17:28 UTC. Time now 2018-Jan-23 13:50 UTC.
Position N 01°13' E 103°56'.
Warning: this ship's position is 16 days out of date.

Length 180 m; draft 8.3 m.

Type: Ship (hazmat cat A). MMSI: 247069800.

Date/timePositionNaut miles runAvg speedWind from/ knotsBaromVisibWave heightAir tempDewpointWater temp
2018-Jan-06 17:28N 01°13' E 103°56'611.5
2018-Jan-06 16:59N 01°11' E 103°51'510.9
2018-Jan-06 16:30N 01°09' E 103°47'611.1
2018-Jan-06 15:59N 01°05' E 103°42'510.8
2018-Jan-06 15:30N 01°03' E 103°38'5 9.1
2018-Jan-06 14:59N 01°06' E 103°34'3 6.0
2018-Jan-06 14:29N 01°08' E 103°32'510.5
2018-Jan-06 13:59N 01°13' E 103°34'0 0.2
2018-Jan-06 13:24N 01°13' E 103°34'0 0.0
2018-Jan-06 12:57N 01°13' E 103°34'0 0.0
2018-Jan-06 12:30N 01°13' E 103°34'0 0.0
2018-Jan-06 11:54N 01°13' E 103°34'0 0.0
2018-Jan-06 11:30N 01°13' E 103°34'0 0.0
2018-Jan-06 10:54N 01°13' E 103°34'0 0.0
2018-Jan-06 10:21N 01°13' E 103°34'0 0.0
2018-Jan-06 09:51N 01°13' E 103°34'0 0.0
2018-Jan-06 09:24N 01°13' E 103°34'0 0.2
2018-Jan-06 08:55N 01°13' E 103°34'0 0.1
2018-Jan-06 08:24N 01°13' E 103°34'0 0.0
2018-Jan-06 07:54N 01°13' E 103°34'0 0.0
2018-Jan-06 07:21N 01°13' E 103°34'0 0.0
2018-Jan-06 06:57N 01°13' E 103°34'0 0.1
2018-Jan-06 06:30N 01°13' E 103°34'0 0.0
2018-Jan-06 05:57N 01°13' E 103°34'0 0.0
2018-Jan-06 05:30N 01°13' E 103°34'0 0.0
2018-Jan-06 04:57N 01°13' E 103°34'0 0.0
2018-Jan-06 04:24N 01°13' E 103°34'0 0.0
2018-Jan-06 03:57N 01°13' E 103°34'0 0.0
2018-Jan-06 03:30N 01°13' E 103°34'0 0.1
2018-Jan-06 02:57N 01°13' E 103°34'0 0.2
2018-Jan-06 02:30N 01°13' E 103°34'0 0.0
2018-Jan-06 01:54N 01°13' E 103°34'0 0.1
2018-Jan-06 01:24N 01°13' E 103°34'0 0.0
2018-Jan-06 00:57N 01°13' E 103°34'0 0.1
2018-Jan-06 00:30N 01°13' E 103°34'0 0.0
2018-Jan-05 23:50N 01°13' E 103°34'0 0.3
2018-Jan-05 23:26N 01°13' E 103°34'0 0.0
2018-Jan-05 22:56N 01°13' E 103°34'0 0.0
2018-Jan-05 22:26N 01°13' E 103°34'0 0.1
2018-Jan-05 21:50N 01°13' E 103°34'0 0.3
2018-Jan-05 21:23N 01°13' E 103°34'0 0.2
2018-Jan-05 20:44N 01°13' E 103°35'0 0.0
2018-Jan-05 20:23N 01°13' E 103°35'0 0.0
2018-Jan-05 19:53N 01°13' E 103°35'0 0.0
2018-Jan-05 19:11N 01°13' E 103°35'0 0.0
2018-Jan-05 18:56N 01°13' E 103°35'0 0.0
2018-Jan-05 18:29N 01°13' E 103°35'0 0.0
2018-Jan-05 17:56N 01°13' E 103°35'0 0.1
2018-Jan-05 17:24N 01°13' E 103°35'0 0.4
2018-Jan-05 16:59N 01°13' E 103°35'1 1.0
2018-Jan-05 16:30N 01°13' E 103°34'2 3.7
2018-Jan-05 16:01N 01°12' E 103°36'4 8.6
2018-Jan-05 15:30N 01°11' E 103°40'611.1
2018-Jan-05 15:00N 01°08' E 103°45'510.8
2018-Jan-05 14:30N 01°11' E 103°49'3 4.9
2018-Jan-05 13:57N 01°14' E 103°48'0 0.1
2018-Jan-05 13:30N 01°14' E 103°48'0 0.0
2018-Jan-05 13:00N 01°14' E 103°48'0 0.0
2018-Jan-05 12:30N 01°14' E 103°48'0 0.0
2018-Jan-05 11:57N 01°14' E 103°48'0 0.0
2018-Jan-05 11:30N 01°14' E 103°48'0 0.0
2018-Jan-05 10:57N 01°14' E 103°48'0 0.0
2018-Jan-05 10:27N 01°14' E 103°48'0 0.0
2018-Jan-05 10:00N 01°14' E 103°48'0 0.1
2018-Jan-05 09:30N 01°14' E 103°48'0 0.0
2018-Jan-05 08:54N 01°14' E 103°48'0 0.0
2018-Jan-05 08:27N 01°14' E 103°48'0 0.0
2018-Jan-05 07:57N 01°14' E 103°48'0 0.0
2018-Jan-05 07:30N 01°14' E 103°48'0 0.1
2018-Jan-05 07:00N 01°14' E 103°48'0 0.1
2018-Jan-05 06:30N 01°14' E 103°48'0 0.0
2018-Jan-05 05:48N 01°14' E 103°48'0 0.1
2018-Jan-05 05:27N 01°14' E 103°48'0 0.2
2018-Jan-05 05:00N 01°14' E 103°48'0 0.1
2018-Jan-05 04:30N 01°14' E 103°48'0 0.2
2018-Jan-05 03:57N 01°14' E 103°48'0 0.2
2018-Jan-05 03:24N 01°14' E 103°48'0 0.2
2018-Jan-05 03:00N 01°14' E 103°48'0 0.0
2018-Jan-05 02:28N 01°14' E 103°48'0 0.0
2018-Jan-05 01:58N 01°14' E 103°48'0 0.0
2018-Jan-05 01:30N 01°14' E 103°48'0 0.1
2018-Jan-05 00:48N 01°14' E 103°48'0 0.3
2018-Jan-05 00:27N 01°14' E 103°48'0 0.1
2018-Jan-04 23:36N 01°14' E 103°48'0 0.2
2018-Jan-04 23:15N 01°14' E 103°48'0 0.1
2018-Jan-04 22:57N 01°14' E 103°48'0 0.0
2018-Jan-04 22:27N 01°14' E 103°48'0 0.1
2018-Jan-04 21:51N 01°14' E 103°48'0 0.1
2018-Jan-04 21:30N 01°14' E 103°48'0 0.1
2018-Jan-04 20:51N 01°14' E 103°48'0 0.2
2018-Jan-04 20:30N 01°14' E 103°48'0 0.1
2018-Jan-04 19:51N 01°14' E 103°48'0 0.0
2018-Jan-04 19:30N 01°14' E 103°48'0 0.1
2018-Jan-04 18:57N 01°14' E 103°48'0 0.1
2018-Jan-04 18:30N 01°14' E 103°48'0 0.2
2018-Jan-04 17:57N 01°14' E 103°48'0 0.1
2018-Jan-04 17:24N 01°14' E 103°48'0 0.0
2018-Jan-04 16:45N 01°14' E 103°48'0 0.0
2018-Jan-04 16:24N 01°14' E 103°48'0 0.1
2018-Jan-04 15:45N 01°14' E 103°48'0 0.1
2018-Jan-04 15:30N 01°14' E 103°48'0 0.0
2018-Jan-04 14:54N 01°14' E 103°48'0 0.1
2018-Jan-04 14:27N 01°14' E 103°48'0 0.1
2018-Jan-04 13:57N 01°14' E 103°48'0 0.0
2018-Jan-04 13:24N 01°14' E 103°48'0 0.0
2018-Jan-04 12:57N 01°14' E 103°48'0 0.0
2018-Jan-04 12:30N 01°14' E 103°48'0 0.0
2018-Jan-04 11:57N 01°14' E 103°48'0 0.0
2018-Jan-04 11:27N 01°14' E 103°48'0 0.1
2018-Jan-04 10:51N 01°14' E 103°48'0 0.2
2018-Jan-04 10:27N 01°14' E 103°48'0 0.0
2018-Jan-04 09:57N 01°14' E 103°48'0 0.0
2018-Jan-04 09:30N 01°14' E 103°48'0 0.0
2018-Jan-04 08:54N 01°14' E 103°48'0 0.0
2018-Jan-04 08:27N 01°14' E 103°48'0 0.0
2018-Jan-04 07:57N 01°14' E 103°48'0 0.1
2018-Jan-04 07:30N 01°14' E 103°48'0 0.0
2018-Jan-04 06:54N 01°14' E 103°48'0 0.1
2018-Jan-04 06:24N 01°14' E 103°48'0 0.2
2018-Jan-04 05:56N 01°14' E 103°48'0 0.1
2018-Jan-04 05:29N 01°14' E 103°48'0 0.1
2018-Jan-04 04:50N 01°14' E 103°48'0 0.0
2018-Jan-04 04:18N 01°14' E 103°48'0 0.0
2018-Jan-04 03:56N 01°14' E 103°48'0 0.3
2018-Jan-04 03:29N 01°14' E 103°48'0 0.2
2018-Jan-04 02:59N 01°14' E 103°48'2 3.5
2018-Jan-04 02:30N 01°14' E 103°46'3 6.5
2018-Jan-04 02:00N 01°15' E 103°43'2 3.5
2018-Jan-04 01:31N 01°15' E 103°41'0 0.0
2018-Jan-04 00:59N 01°15' E 103°41'0 0.0
2018-Jan-04 00:26N 01°15' E 103°41'0 0.0
2018-Jan-03 23:59N 01°15' E 103°41'0 0.0
2018-Jan-03 23:29N 01°15' E 103°41'0 0.0
2018-Jan-03 19:44N 01°15' E 103°41'0 0.0
2018-Jan-03 19:23N 01°15' E 103°41'0 0.0
2018-Jan-03 18:59N 01°15' E 103°41'0 0.0
2018-Jan-03 18:26N 01°15' E 103°41'0 0.0
2018-Jan-03 17:59N 01°15' E 103°41'0 0.0
2018-Jan-03 17:29N 01°15' E 103°41'0 0.0
2018-Jan-03 16:59N 01°15' E 103°41'0 0.0
2018-Jan-03 16:26N 01°15' E 103°41'0 0.0
2018-Jan-03 15:59N 01°15' E 103°41'0 0.0
2018-Jan-03 15:29N 01°15' E 103°41'0 0.0
2018-Jan-03 14:59N 01°15' E 103°41'0 0.0
2018-Jan-03 14:29N 01°15' E 103°41'0 0.0
2018-Jan-03 13:59N 01°15' E 103°41'0 0.0
2018-Jan-03 13:23N 01°15' E 103°41'0 0.0
2018-Jan-03 12:52N 01°15' E 103°41'0 0.0
2018-Jan-03 12:22N 01°15' E 103°41'0 0.0
2018-Jan-03 11:52N 01°15' E 103°41'0 0.0
2018-Jan-03 11:28N 01°15' E 103°41'0 0.0
2018-Jan-03 10:55N 01°15' E 103°41'0 0.0
2018-Jan-03 10:19N 01°15' E 103°41'0 0.0
2018-Jan-03 09:55N 01°15' E 103°41'0 0.0
2018-Jan-03 09:25N 01°15' E 103°41'0 0.0
2018-Jan-03 08:49N 01°15' E 103°41'0 0.0
2018-Jan-03 08:28N 01°15' E 103°41'0 0.0
2018-Jan-03 07:58N 01°15' E 103°41'0 0.0
2018-Jan-03 07:30N 01°15' E 103°41'0 0.9
2018-Jan-03 06:59N 01°15' E 103°42'3 6.9
2018-Jan-03 06:30N 01°16' E 103°45'4 8.7
2018-Jan-03 06:00N 01°13' E 103°48'0 0.5
2018-Jan-03 05:16N 01°13' E 103°49'0 0.2
2018-Jan-03 04:58N 01°13' E 103°49'0 0.1
2018-Jan-03 04:19N 01°13' E 103°49'0 0.1
2018-Jan-03 03:55N 01°13' E 103°48'0 0.0
2018-Jan-03 03:28N 01°13' E 103°48'0 0.3
2018-Jan-03 02:58N 01°13' E 103°49'0 0.3
2018-Jan-03 02:28N 01°13' E 103°48'0 0.1
2018-Jan-03 01:55N 01°13' E 103°48'0 0.2
2018-Jan-03 01:28N 01°13' E 103°48'0 0.3
2018-Jan-03 01:01N 01°13' E 103°48'0 0.1
2018-Jan-03 00:28N 01°13' E 103°48'0 0.0
2018-Jan-02 23:24N 01°13' E 103°48'0 0.2
2018-Jan-02 23:00N 01°13' E 103°48'0 0.2
2018-Jan-02 22:30N 01°13' E 103°48'0 0.2
2018-Jan-02 22:00N 01°13' E 103°48'0 0.2
2018-Jan-02 21:27N 01°13' E 103°48'0 0.2
2018-Jan-02 21:00N 01°13' E 103°48'0 0.0
2018-Jan-02 20:21N 01°13' E 103°48'0 0.0
2018-Jan-02 20:00N 01°13' E 103°48'0 0.0
2018-Jan-02 19:30N 01°13' E 103°48'0 0.1
2018-Jan-02 18:54N 01°13' E 103°48'0 0.2
2018-Jan-02 18:27N 01°13' E 103°48'0 0.1
2018-Jan-02 17:54N 01°13' E 103°48'0 0.2
2018-Jan-02 17:24N 01°13' E 103°48'0 0.2
2018-Jan-02 17:00N 01°13' E 103°48'0 0.1
2018-Jan-02 16:30N 01°13' E 103°48'0 0.2
2018-Jan-02 15:54N 01°13' E 103°48'0 0.1
2018-Jan-02 15:30N 01°13' E 103°48'0 0.1
2018-Jan-02 14:54N 01°13' E 103°48'0 0.1
2018-Jan-02 14:09N 01°13' E 103°48'0 0.3
2018-Jan-02 13:57N 01°13' E 103°48'0 0.1
2018-Jan-02 13:24N 01°13' E 103°48'0 0.1
2018-Jan-02 12:57N 01°13' E 103°48'0 0.2
2018-Jan-02 12:27N 01°13' E 103°48'0 0.2
2018-Jan-02 11:57N 01°13' E 103°49'0 0.1
2018-Jan-02 11:30N 01°13' E 103°49'0 0.0
2018-Jan-02 10:57N 01°13' E 103°49'0 0.1
2018-Jan-02 10:30N 01°13' E 103°49'0 0.0
2018-Jan-02 09:57N 01°13' E 103°49'0 0.0
2018-Jan-02 09:30N 01°13' E 103°49'0 0.0
2018-Jan-02 08:30N 01°13' E 103°49'2 3.6
2018-Jan-02 07:59N 01°14' E 103°47'4 8.4
2018-Jan-02 07:30N 01°14' E 103°43'5 9.2
2018-Jan-02 07:00N 01°12' E 103°39'4 8.1
2018-Jan-02 06:30N 01°11' E 103°35'5 9.5
2018-Jan-02 06:00N 01°10' E 103°30'712.0
2018-Jan-02 05:24N 01°13' E 103°23'  
Track history (hours):
 
Tides and Currents Weather Stations Pressure Air Temp Water Temp Dewpoint Dewpoint Depression Visibility Wind Speed Wind Dir Waves Ship Positions

Favola

Last reported at 2018-Jan-06 17:28 UTC. Time now 2018-Jan-23 13:50 UTC.
Position N 01°13' E 103°56'.
Warning: this ship's position is 16 days out of date.

Length 180 m; draft 8.3 m.

Type: Ship (hazmat cat A). MMSI: 247069800.

Date/timePositionNaut miles runAvg speedWind from/ knotsBaromVisibWave heightAir tempDewpointWater temp
2018-Jan-06 17:28N 01°13' E 103°56'611.5
2018-Jan-06 16:59N 01°11' E 103°51'510.9
2018-Jan-06 16:30N 01°09' E 103°47'611.1
2018-Jan-06 15:59N 01°05' E 103°42'510.8
2018-Jan-06 15:30N 01°03' E 103°38'5 9.1
2018-Jan-06 14:59N 01°06' E 103°34'3 6.0
2018-Jan-06 14:29N 01°08' E 103°32'510.5
2018-Jan-06 13:59N 01°13' E 103°34'0 0.2
2018-Jan-06 13:24N 01°13' E 103°34'0 0.0
2018-Jan-06 12:57N 01°13' E 103°34'0 0.0
2018-Jan-06 12:30N 01°13' E 103°34'0 0.0
2018-Jan-06 11:54N 01°13' E 103°34'0 0.0
2018-Jan-06 11:30N 01°13' E 103°34'0 0.0
2018-Jan-06 10:54N 01°13' E 103°34'0 0.0
2018-Jan-06 10:21N 01°13' E 103°34'0 0.0
2018-Jan-06 09:51N 01°13' E 103°34'0 0.0
2018-Jan-06 09:24N 01°13' E 103°34'0 0.2
2018-Jan-06 08:55N 01°13' E 103°34'0 0.1
2018-Jan-06 08:24N 01°13' E 103°34'0 0.0
2018-Jan-06 07:54N 01°13' E 103°34'0 0.0
2018-Jan-06 07:21N 01°13' E 103°34'0 0.0
2018-Jan-06 06:57N 01°13' E 103°34'0 0.1
2018-Jan-06 06:30N 01°13' E 103°34'0 0.0
2018-Jan-06 05:57N 01°13' E 103°34'0 0.0
2018-Jan-06 05:30N 01°13' E 103°34'0 0.0
2018-Jan-06 04:57N 01°13' E 103°34'0 0.0
2018-Jan-06 04:24N 01°13' E 103°34'0 0.0
2018-Jan-06 03:57N 01°13' E 103°34'0 0.0
2018-Jan-06 03:30N 01°13' E 103°34'0 0.1
2018-Jan-06 02:57N 01°13' E 103°34'0 0.2
2018-Jan-06 02:30N 01°13' E 103°34'0 0.0
2018-Jan-06 01:54N 01°13' E 103°34'0 0.1
2018-Jan-06 01:24N 01°13' E 103°34'0 0.0
2018-Jan-06 00:57N 01°13' E 103°34'0 0.1
2018-Jan-06 00:30N 01°13' E 103°34'0 0.0
2018-Jan-05 23:50N 01°13' E 103°34'0 0.3
2018-Jan-05 23:26N 01°13' E 103°34'0 0.0
2018-Jan-05 22:56N 01°13' E 103°34'0 0.0
2018-Jan-05 22:26N 01°13' E 103°34'0 0.1
2018-Jan-05 21:50N 01°13' E 103°34'0 0.3
2018-Jan-05 21:23N 01°13' E 103°34'0 0.2
2018-Jan-05 20:44N 01°13' E 103°35'0 0.0
2018-Jan-05 20:23N 01°13' E 103°35'0 0.0
2018-Jan-05 19:53N 01°13' E 103°35'0 0.0
2018-Jan-05 19:11N 01°13' E 103°35'0 0.0
2018-Jan-05 18:56N 01°13' E 103°35'0 0.0
2018-Jan-05 18:29N 01°13' E 103°35'0 0.0
2018-Jan-05 17:56N 01°13' E 103°35'0 0.1
2018-Jan-05 17:24N 01°13' E 103°35'0 0.4
2018-Jan-05 16:59N 01°13' E 103°35'1 1.0
2018-Jan-05 16:30N 01°13' E 103°34'2 3.7
2018-Jan-05 16:01N 01°12' E 103°36'4 8.6
2018-Jan-05 15:30N 01°11' E 103°40'611.1
2018-Jan-05 15:00N 01°08' E 103°45'510.8
2018-Jan-05 14:30N 01°11' E 103°49'3 4.9
2018-Jan-05 13:57N 01°14' E 103°48'0 0.1
2018-Jan-05 13:30N 01°14' E 103°48'0 0.0
2018-Jan-05 13:00N 01°14' E 103°48'0 0.0
2018-Jan-05 12:30N 01°14' E 103°48'0 0.0
2018-Jan-05 11:57N 01°14' E 103°48'0 0.0
2018-Jan-05 11:30N 01°14' E 103°48'0 0.0
2018-Jan-05 10:57N 01°14' E 103°48'0 0.0
2018-Jan-05 10:27N 01°14' E 103°48'0 0.0
2018-Jan-05 10:00N 01°14' E 103°48'0 0.1
2018-Jan-05 09:30N 01°14' E 103°48'0 0.0
2018-Jan-05 08:54N 01°14' E 103°48'0 0.0
2018-Jan-05 08:27N 01°14' E 103°48'0 0.0
2018-Jan-05 07:57N 01°14' E 103°48'0 0.0
2018-Jan-05 07:30N 01°14' E 103°48'0 0.1
2018-Jan-05 07:00N 01°14' E 103°48'0 0.1
2018-Jan-05 06:30N 01°14' E 103°48'0 0.0
2018-Jan-05 05:48N 01°14' E 103°48'0 0.1
2018-Jan-05 05:27N 01°14' E 103°48'0 0.2
2018-Jan-05 05:00N 01°14' E 103°48'0 0.1
2018-Jan-05 04:30N 01°14' E 103°48'0 0.2
2018-Jan-05 03:57N 01°14' E 103°48'0 0.2
2018-Jan-05 03:24N 01°14' E 103°48'0 0.2
2018-Jan-05 03:00N 01°14' E 103°48'0 0.0
2018-Jan-05 02:28N 01°14' E 103°48'0 0.0
2018-Jan-05 01:58N 01°14' E 103°48'0 0.0
2018-Jan-05 01:30N 01°14' E 103°48'0 0.1
2018-Jan-05 00:48N 01°14' E 103°48'0 0.3
2018-Jan-05 00:27N 01°14' E 103°48'0 0.1
2018-Jan-04 23:36N 01°14' E 103°48'0 0.2
2018-Jan-04 23:15N 01°14' E 103°48'0 0.1
2018-Jan-04 22:57N 01°14' E 103°48'0 0.0
2018-Jan-04 22:27N 01°14' E 103°48'0 0.1
2018-Jan-04 21:51N 01°14' E 103°48'0 0.1
2018-Jan-04 21:30N 01°14' E 103°48'0 0.1
2018-Jan-04 20:51N 01°14' E 103°48'0 0.2
2018-Jan-04 20:30N 01°14' E 103°48'0 0.1
2018-Jan-04 19:51N 01°14' E 103°48'0 0.0
2018-Jan-04 19:30N 01°14' E 103°48'0 0.1
2018-Jan-04 18:57N 01°14' E 103°48'0 0.1
2018-Jan-04 18:30N 01°14' E 103°48'0 0.2
2018-Jan-04 17:57N 01°14' E 103°48'0 0.1
2018-Jan-04 17:24N 01°14' E 103°48'0 0.0
2018-Jan-04 16:45N 01°14' E 103°48'0 0.0
2018-Jan-04 16:24N 01°14' E 103°48'0 0.1
2018-Jan-04 15:45N 01°14' E 103°48'0 0.1
2018-Jan-04 15:30N 01°14' E 103°48'0 0.0
2018-Jan-04 14:54N 01°14' E 103°48'0 0.1
2018-Jan-04 14:27N 01°14' E 103°48'0 0.1
2018-Jan-04 13:57N 01°14' E 103°48'0 0.0
2018-Jan-04 13:24N 01°14' E 103°48'0 0.0
2018-Jan-04 12:57N 01°14' E 103°48'0 0.0
2018-Jan-04 12:30N 01°14' E 103°48'0 0.0
2018-Jan-04 11:57N 01°14' E 103°48'0 0.0
2018-Jan-04 11:27N 01°14' E 103°48'0 0.1
2018-Jan-04 10:51N 01°14' E 103°48'0 0.2
2018-Jan-04 10:27N 01°14' E 103°48'0 0.0
2018-Jan-04 09:57N 01°14' E 103°48'0 0.0
2018-Jan-04 09:30N 01°14' E 103°48'0 0.0
2018-Jan-04 08:54N 01°14' E 103°48'0 0.0
2018-Jan-04 08:27N 01°14' E 103°48'0 0.0
2018-Jan-04 07:57N 01°14' E 103°48'0 0.1
2018-Jan-04 07:30N 01°14' E 103°48'0 0.0
2018-Jan-04 06:54N 01°14' E 103°48'0 0.1
2018-Jan-04 06:24N 01°14' E 103°48'0 0.2
2018-Jan-04 05:56N 01°14' E 103°48'0 0.1
2018-Jan-04 05:29N 01°14' E 103°48'0 0.1
2018-Jan-04 04:50N 01°14' E 103°48'0 0.0
2018-Jan-04 04:18N 01°14' E 103°48'0 0.0
2018-Jan-04 03:56N 01°14' E 103°48'0 0.3
2018-Jan-04 03:29N 01°14' E 103°48'0 0.2
2018-Jan-04 02:59N 01°14' E 103°48'2 3.5
2018-Jan-04 02:30N 01°14' E 103°46'3 6.5
2018-Jan-04 02:00N 01°15' E 103°43'2 3.5
2018-Jan-04 01:31N 01°15' E 103°41'0 0.0
2018-Jan-04 00:59N 01°15' E 103°41'0 0.0
2018-Jan-04 00:26N 01°15' E 103°41'0 0.0
2018-Jan-03 23:59N 01°15' E 103°41'0 0.0
2018-Jan-03 23:29N 01°15' E 103°41'0 0.0
2018-Jan-03 19:44N 01°15' E 103°41'0 0.0
2018-Jan-03 19:23N 01°15' E 103°41'0 0.0
2018-Jan-03 18:59N 01°15' E 103°41'0 0.0
2018-Jan-03 18:26N 01°15' E 103°41'0 0.0
2018-Jan-03 17:59N 01°15' E 103°41'0 0.0
2018-Jan-03 17:29N 01°15' E 103°41'0 0.0
2018-Jan-03 16:59N 01°15' E 103°41'0 0.0
2018-Jan-03 16:26N 01°15' E 103°41'0 0.0
2018-Jan-03 15:59N 01°15' E 103°41'0 0.0
2018-Jan-03 15:29N 01°15' E 103°41'0 0.0
2018-Jan-03 14:59N 01°15' E 103°41'0 0.0
2018-Jan-03 14:29N 01°15' E 103°41'0 0.0
2018-Jan-03 13:59N 01°15' E 103°41'0 0.0
2018-Jan-03 13:23N 01°15' E 103°41'0 0.0
2018-Jan-03 12:52N 01°15' E 103°41'0 0.0
2018-Jan-03 12:22N 01°15' E 103°41'0 0.0
2018-Jan-03 11:52N 01°15' E 103°41'0 0.0
2018-Jan-03 11:28N 01°15' E 103°41'0 0.0
2018-Jan-03 10:55N 01°15' E 103°41'0 0.0
2018-Jan-03 10:19N 01°15' E 103°41'0 0.0
2018-Jan-03 09:55N 01°15' E 103°41'0 0.0
2018-Jan-03 09:25N 01°15' E 103°41'0 0.0
2018-Jan-03 08:49N 01°15' E 103°41'0 0.0
2018-Jan-03 08:28N 01°15' E 103°41'0 0.0
2018-Jan-03 07:58N 01°15' E 103°41'0 0.0
2018-Jan-03 07:30N 01°15' E 103°41'0 0.9
2018-Jan-03 06:59N 01°15' E 103°42'3 6.9
2018-Jan-03 06:30N 01°16' E 103°45'4 8.7
2018-Jan-03 06:00N 01°13' E 103°48'0 0.5
2018-Jan-03 05:16N 01°13' E 103°49'0 0.2
2018-Jan-03 04:58N 01°13' E 103°49'0 0.1
2018-Jan-03 04:19N 01°13' E 103°49'0 0.1
2018-Jan-03 03:55N 01°13' E 103°48'0 0.0
2018-Jan-03 03:28N 01°13' E 103°48'0 0.3
2018-Jan-03 02:58N 01°13' E 103°49'0 0.3
2018-Jan-03 02:28N 01°13' E 103°48'0 0.1
2018-Jan-03 01:55N 01°13' E 103°48'0 0.2
2018-Jan-03 01:28N 01°13' E 103°48'0 0.3
2018-Jan-03 01:01N 01°13' E 103°48'0 0.1
2018-Jan-03 00:28N 01°13' E 103°48'0 0.0
2018-Jan-02 23:24N 01°13' E 103°48'0 0.2
2018-Jan-02 23:00N 01°13' E 103°48'0 0.2
2018-Jan-02 22:30N 01°13' E 103°48'0 0.2
2018-Jan-02 22:00N 01°13' E 103°48'0 0.2
2018-Jan-02 21:27N 01°13' E 103°48'0 0.2
2018-Jan-02 21:00N 01°13' E 103°48'0 0.0
2018-Jan-02 20:21N 01°13' E 103°48'0 0.0
2018-Jan-02 20:00N 01°13' E 103°48'0 0.0
2018-Jan-02 19:30N 01°13' E 103°48'0 0.1
2018-Jan-02 18:54N 01°13' E 103°48'0 0.2
2018-Jan-02 18:27N 01°13' E 103°48'0 0.1
2018-Jan-02 17:54N 01°13' E 103°48'0 0.2
2018-Jan-02 17:24N 01°13' E 103°48'0 0.2
2018-Jan-02 17:00N 01°13' E 103°48'0 0.1
2018-Jan-02 16:30N 01°13' E 103°48'0 0.2
2018-Jan-02 15:54N 01°13' E 103°48'0 0.1
2018-Jan-02 15:30N 01°13' E 103°48'0 0.1
2018-Jan-02 14:54N 01°13' E 103°48'0 0.1
2018-Jan-02 14:09N 01°13' E 103°48'0 0.3
2018-Jan-02 13:57N 01°13' E 103°48'0 0.1
2018-Jan-02 13:24N 01°13' E 103°48'0 0.1
2018-Jan-02 12:57N 01°13' E 103°48'0 0.2
2018-Jan-02 12:27N 01°13' E 103°48'0 0.2
2018-Jan-02 11:57N 01°13' E 103°49'0 0.1
2018-Jan-02 11:30N 01°13' E 103°49'0 0.0
2018-Jan-02 10:57N 01°13' E 103°49'0 0.1
2018-Jan-02 10:30N 01°13' E 103°49'0 0.0
2018-Jan-02 09:57N 01°13' E 103°49'0 0.0
2018-Jan-02 09:30N 01°13' E 103°49'0 0.0
2018-Jan-02 08:30N 01°13' E 103°49'2 3.6
2018-Jan-02 07:59N 01°14' E 103°47'4 8.4
2018-Jan-02 07:30N 01°14' E 103°43'5 9.2
2018-Jan-02 07:00N 01°12' E 103°39'4 8.1
2018-Jan-02 06:30N 01°11' E 103°35'5 9.5
2018-Jan-02 06:00N 01°10' E 103°30'712.0
2018-Jan-02 05:24N 01°13' E 103°23'  

Dump ship's entire track history